sensor_id;sensor_type;location;lat;lon;timestamp;pressure;altitude;pressure_sealevel;temperature;humidity
49759;BME280;70329;45.524;10.194;2023-11-21T00:02:00;99638.44;;;10.34;100.00
49759;BME280;70329;45.524;10.194;2023-11-21T00:04:28;99647.72;;;10.33;100.00
49759;BME280;70329;45.524;10.194;2023-11-21T00:06:55;99640.34;;;10.34;100.00
49759;BME280;70329;45.524;10.194;2023-11-21T00:09:25;99640.34;;;10.34;100.00
49759;BME280;70329;45.524;10.194;2023-11-21T00:11:51;99625.03;;;10.33;100.00
49759;BME280;70329;45.524;10.194;2023-11-21T00:14:18;99613.78;;;10.34;100.00
49759;BME280;70329;45.524;10.194;2023-11-21T00:16:45;99615.19;;;10.32;100.00
49759;BME280;70329;45.524;10.194;2023-11-21T00:19:12;99619.59;;;10.28;100.00
49759;BME280;70329;45.524;10.194;2023-11-21T00:21:44;99619.31;;;10.29;100.00
49759;BME280;70329;45.524;10.194;2023-11-21T00:24:12;99610.81;;;10.31;100.00
49759;BME280;70329;45.524;10.194;2023-11-21T00:26:40;99614.38;;;10.31;100.00
49759;BME280;70329;45.524;10.194;2023-11-21T00:29:07;99617.09;;;10.31;100.00
49759;BME280;70329;45.524;10.194;2023-11-21T00:31:35;99622.59;;;10.31;100.00
49759;BME280;70329;45.524;10.194;2023-11-21T00:34:05;99627.78;;;10.33;100.00
49759;BME280;70329;45.524;10.194;2023-11-21T00:36:32;99639.56;;;10.28;100.00
49759;BME280;70329;45.524;10.194;2023-11-21T00:39:00;99632.81;;;10.21;100.00
49759;BME280;70329;45.524;10.194;2023-11-21T00:41:27;99625.94;;;10.23;100.00
49759;BME280;70329;45.524;10.194;2023-11-21T00:43:54;99631.09;;;10.25;100.00
49759;BME280;70329;45.524;10.194;2023-11-21T00:46:21;99633.31;;;10.23;100.00
49759;BME280;70329;45.524;10.194;2023-11-21T00:48:48;99619.38;;;10.24;100.00
49759;BME280;70329;45.524;10.194;2023-11-21T00:51:15;99617.97;;;10.27;100.00
49759;BME280;70329;45.524;10.194;2023-11-21T00:53:41;99614.94;;;10.28;100.00
49759;BME280;70329;45.524;10.194;2023-11-21T00:56:09;99613.06;;;10.24;100.00
49759;BME280;70329;45.524;10.194;2023-11-21T00:58:35;99619.38;;;10.24;100.00
49759;BME280;70329;45.524;10.194;2023-11-21T01:01:00;99616.63;;;10.24;100.00
49759;BME280;70329;45.524;10.194;2023-11-21T01:03:27;99608.41;;;10.24;100.00
49759;BME280;70329;45.524;10.194;2023-11-21T01:05:54;99607.03;;;10.22;100.00
49759;BME280;70329;45.524;10.194;2023-11-21T01:08:20;99607.66;;;10.19;100.00
49759;BME280;70329;45.524;10.194;2023-11-21T01:10:46;99607.03;;;10.22;100.00
49759;BME280;70329;45.524;10.194;2023-11-21T01:13:13;99602.94;;;10.24;100.00
49759;BME280;70329;45.524;10.194;2023-11-21T01:15:41;99602.66;;;10.26;100.00
49759;BME280;70329;45.524;10.194;2023-11-21T01:18:08;99602.66;;;10.26;100.00
49759;BME280;70329;45.524;10.194;2023-11-21T01:20:35;99601.81;;;10.25;100.00
49759;BME280;70329;45.524;10.194;2023-11-21T01:23:02;99610.03;;;10.25;100.00
49759;BME280;70329;45.524;10.194;2023-11-21T01:25:29;99604.81;;;10.29;100.00
49759;BME280;70329;45.524;10.194;2023-11-21T01:27:55;99606.22;;;10.26;100.00
49759;BME280;70329;45.524;10.194;2023-11-21T01:30:27;99601.56;;;10.22;100.00
49759;BME280;70329;45.524;10.194;2023-11-21T01:32:54;99604.63;;;10.20;100.00
49759;BME280;70329;45.524;10.194;2023-11-21T01:35:21;99604.91;;;10.19;100.00
49759;BME280;70329;45.524;10.194;2023-11-21T01:37:48;99599.44;;;10.19;100.00
49759;BME280;70329;45.524;10.194;2023-11-21T01:40:14;99599.13;;;10.20;100.00
49759;BME280;70329;45.524;10.194;2023-11-21T01:42:41;99604.91;;;10.19;100.00
49759;BME280;70329;45.524;10.194;2023-11-21T01:45:10;99598.31;;;10.20;100.00
49759;BME280;70329;45.524;10.194;2023-11-21T01:47:38;99591.22;;;10.19;100.00
49759;BME280;70329;45.524;10.194;2023-11-21T01:50:07;99581.91;;;10.20;100.00
49759;BME280;70329;45.524;10.194;2023-11-21T01:52:35;99578.88;;;10.21;100.00
49759;BME280;70329;45.524;10.194;2023-11-21T01:55:03;99571.47;;;10.22;100.00
49759;BME280;70329;45.524;10.194;2023-11-21T01:57:31;99579.69;;;10.22;100.00
49759;BME280;70329;45.524;10.194;2023-11-21T01:59:58;99570.94;;;10.20;100.00
49759;BME280;70329;45.524;10.194;2023-11-21T02:02:25;99569.03;;;10.20;100.00
49759;BME280;70329;45.524;10.194;2023-11-21T02:04:53;99574.22;;;10.22;100.00
49759;BME280;70329;45.524;10.194;2023-11-21T02:07:20;99571.19;;;10.23;100.00
49759;BME280;70329;45.524;10.194;2023-11-21T02:09:46;99567.13;;;10.21;100.00
49759;BME280;70329;45.524;10.194;2023-11-21T02:12:13;99563.25;;;10.22;100.00
49759;BME280;70329;45.524;10.194;2023-11-21T02:14:40;99565.72;;;10.23;100.00
49759;BME280;70329;45.524;10.194;2023-11-21T02:17:07;99560.78;;;10.25;100.00
49759;BME280;70329;45.524;10.194;2023-11-21T02:19:34;99561.03;;;10.29;100.00
49759;BME280;70329;45.524;10.194;2023-11-21T02:22:03;99556.94;;;10.26;100.00
49759;BME280;70329;45.524;10.194;2023-11-21T02:24:34;99555.81;;;10.27;100.00
49759;BME280;70329;45.524;10.194;2023-11-21T02:27:00;99550.66;;;10.26;100.00
49759;BME280;70329;45.524;10.194;2023-11-21T02:29:26;99551.75;;;10.25;100.00
49759;BME280;70329;45.524;10.194;2023-11-21T02:31:54;99548.22;;;10.24;100.00
49759;BME280;70329;45.524;10.194;2023-11-21T02:34:20;99547.09;;;10.25;100.00
49759;BME280;70329;45.524;10.194;2023-11-21T02:36:47;99541.09;;;10.23;100.00
49759;BME280;70329;45.524;10.194;2023-11-21T02:39:17;99534.81;;;10.23;100.00
49759;BME280;70329;45.524;10.194;2023-11-21T02:41:44;99535.09;;;10.21;100.00
49759;BME280;70329;45.524;10.194;2023-11-21T02:44:11;99521.13;;;10.23;100.00
49759;BME280;70329;45.524;10.194;2023-11-21T02:46:38;99523.34;;;10.21;100.00
49759;BME280;70329;45.524;10.194;2023-11-21T02:49:06;99516.75;;;10.22;100.00
49759;BME280;70329;45.524;10.194;2023-11-21T02:51:32;99521.38;;;10.26;100.00
49759;BME280;70329;45.524;10.194;2023-11-21T02:54:00;99519.72;;;10.25;100.00
49759;BME280;70329;45.524;10.194;2023-11-21T02:56:29;99507.97;;;10.25;100.00
49759;BME280;70329;45.524;10.194;2023-11-21T02:58:58;99515.38;;;10.24;100.00
49759;BME280;70329;45.524;10.194;2023-11-21T03:01:26;99507.38;;;10.28;100.00
49759;BME280;70329;45.524;10.194;2023-11-21T03:03:53;99507.69;;;10.26;100.00
49759;BME280;70329;45.524;10.194;2023-11-21T03:06:20;99507.44;;;10.23;100.00
49759;BME280;70329;45.524;10.194;2023-11-21T03:08:47;99506.91;;;10.21;100.00
49759;BME280;70329;45.524;10.194;2023-11-21T03:11:14;99501.50;;;10.16;100.00
49759;BME280;70329;45.524;10.194;2023-11-21T03:13:41;99499.28;;;10.18;100.00
49759;BME280;70329;45.524;10.194;2023-11-21T03:16:10;99505.28;;;10.20;100.00
49759;BME280;70329;45.524;10.194;2023-11-21T03:18:37;99507.19;;;10.19;100.00
49759;BME280;70329;45.524;10.194;2023-11-21T03:21:05;99494.34;;;10.20;100.00
49759;BME280;70329;45.524;10.194;2023-11-21T03:23:35;99500.63;;;10.20;100.00
49759;BME280;70329;45.524;10.194;2023-11-21T03:26:02;99489.34;;;10.27;100.00
49759;BME280;70329;45.524;10.194;2023-11-21T03:28:28;99486.88;;;10.25;100.00
49759;BME280;70329;45.524;10.194;2023-11-21T03:30:56;99486.38;;;10.23;100.00
49759;BME280;70329;45.524;10.194;2023-11-21T03:33:24;99492.13;;;10.22;100.00
49759;BME280;70329;45.524;10.194;2023-11-21T03:35:51;99485.84;;;10.21;100.00
49759;BME280;70329;45.524;10.194;2023-11-21T03:38:19;99492.94;;;10.22;100.00
49759;BME280;70329;45.524;10.194;2023-11-21T03:40:46;99485.84;;;10.21;100.00
49759;BME280;70329;45.524;10.194;2023-11-21T03:43:13;99487.78;;;10.21;100.00
49759;BME280;70329;45.524;10.194;2023-11-21T03:45:40;99497.91;;;10.20;100.00
49759;BME280;70329;45.524;10.194;2023-11-21T03:48:07;99491.59;;;10.20;100.00
49759;BME280;70329;45.524;10.194;2023-11-21T03:50:36;99498.47;;;10.17;100.00
49759;BME280;70329;45.524;10.194;2023-11-21T03:53:03;99493.28;;;10.16;100.00
49759;BME280;70329;45.524;10.194;2023-11-21T03:55:30;99501.78;;;10.14;100.00
49759;BME280;70329;45.524;10.194;2023-11-21T03:57:56;99501.78;;;10.14;100.00
49759;BME280;70329;45.524;10.194;2023-11-21T04:00:24;99499.88;;;10.15;100.00
49759;BME280;70329;45.524;10.194;2023-11-21T04:02:51;99503.69;;;10.14;100.00
49759;BME280;70329;45.524;10.194;2023-11-21T04:05:17;99503.13;;;10.12;100.00
49759;BME280;70329;45.524;10.194;2023-11-21T04:07:45;99513.25;;;10.11;100.00
49759;BME280;70329;45.524;10.194;2023-11-21T04:10:12;99506.97;;;10.11;100.00
49759;BME280;70329;45.524;10.194;2023-11-21T04:12:38;99505.06;;;10.11;100.00
49759;BME280;70329;45.524;10.194;2023-11-21T04:15:04;99497.97;;;10.10;100.00
49759;BME280;70329;45.524;10.194;2023-11-21T04:17:31;99496.03;;;10.11;100.00
49759;BME280;70329;45.524;10.194;2023-11-21T04:19:58;99494.91;;;10.17;100.00
49759;BME280;70329;45.524;10.194;2023-11-21T04:22:25;99496.31;;;10.14;100.00
49759;BME280;70329;45.524;10.194;2023-11-21T04:24:53;99496.03;;;10.11;100.00
49759;BME280;70329;45.524;10.194;2023-11-21T04:27:22;99501.22;;;10.12;100.00
49759;BME280;70329;45.524;10.194;2023-11-21T04:29:49;99507.78;;;10.11;100.00
49759;BME280;70329;45.524;10.194;2023-11-21T04:32:15;99505.94;;;10.07;100.00
49759;BME280;70329;45.524;10.194;2023-11-21T04:34:43;99505.41;;;10.05;100.00
49759;BME280;70329;45.524;10.194;2023-11-21T04:37:09;99502.69;;;10.05;100.00
49759;BME280;70329;45.524;10.194;2023-11-21T04:39:37;99495.56;;;10.04;100.00
49759;BME280;70329;45.524;10.194;2023-11-21T04:42:05;99497.44;;;10.08;100.00
49759;BME280;70329;45.524;10.194;2023-11-21T04:44:32;99494.69;;;10.08;100.00
49759;BME280;70329;45.524;10.194;2023-11-21T04:46:59;99492.78;;;10.09;100.00
49759;BME280;70329;45.524;10.194;2023-11-21T04:49:26;99498.81;;;10.06;100.00
49759;BME280;70329;45.524;10.194;2023-11-21T04:51:53;99497.47;;;10.03;100.00
49759;BME280;70329;45.524;10.194;2023-11-21T04:54:20;99506.00;;;10.02;100.00
49759;BME280;70329;45.524;10.194;2023-11-21T04:56:45;99493.16;;;9.97;100.00
49759;BME280;70329;45.524;10.194;2023-11-21T04:59:14;99493.59;;;10.09;100.00
49759;BME280;70329;45.524;10.194;2023-11-21T05:01:40;99489.28;;;10.03;100.00
49759;BME280;70329;45.524;10.194;2023-11-21T05:04:07;99491.75;;;10.00;100.00
49759;BME280;70329;45.524;10.194;2023-11-21T05:06:35;99498.59;;;10.02;100.00
49759;BME280;70329;45.524;10.194;2023-11-21T05:09:01;99490.91;;;10.04;100.00
49759;BME280;70329;45.524;10.194;2023-11-21T05:11:28;99487.03;;;10.10;100.00
49759;BME280;70329;45.524;10.194;2023-11-21T05:13:58;99485.38;;;10.09;100.00
49759;BME280;70329;45.524;10.194;2023-11-21T05:16:29;99485.38;;;10.09;100.00
49759;BME280;70329;45.524;10.194;2023-11-21T05:18:56;99473.69;;;10.04;100.00
49759;BME280;70329;45.524;10.194;2023-11-21T05:21:27;99474.25;;;10.01;100.00
49759;BME280;70329;45.524;10.194;2023-11-21T05:23:56;99480.50;;;10.06;100.00
49759;BME280;70329;45.524;10.194;2023-11-21T05:26:23;99485.97;;;10.06;100.00
49759;BME280;70329;45.524;10.194;2023-11-21T05:28:49;99485.44;;;10.04;100.00
49759;BME280;70329;45.524;10.194;2023-11-21T05:31:15;99483.47;;;10.10;100.00
49759;BME280;70329;45.524;10.194;2023-11-21T05:33:44;99483.75;;;10.13;100.00
49759;BME280;70329;45.524;10.194;2023-11-21T05:36:12;99483.75;;;10.08;100.00
49759;BME280;70329;45.524;10.194;2023-11-21T05:38:37;99486.72;;;10.12;100.00
49759;BME280;70329;45.524;10.194;2023-11-21T05:41:03;99482.72;;;10.04;100.00
49759;BME280;70329;45.524;10.194;2023-11-21T05:43:33;99481.06;;;10.03;100.00
49759;BME280;70329;45.524;10.194;2023-11-21T05:46:02;99472.59;;;10.05;100.00
49759;BME280;70329;45.524;10.194;2023-11-21T05:48:28;99472.09;;;9.98;100.00
49759;BME280;70329;45.524;10.194;2023-11-21T05:50:57;99472.09;;;9.98;100.00
49759;BME280;70329;45.524;10.194;2023-11-21T05:53:23;99472.91;;;9.98;100.00
49759;BME280;70329;45.524;10.194;2023-11-21T05:55:51;99478.31;;;10.03;100.00
49759;BME280;70329;45.524;10.194;2023-11-21T05:58:17;99481.13;;;9.98;100.00
49759;BME280;70329;45.524;10.194;2023-11-21T06:00:44;99480.06;;;9.94;100.00
49759;BME280;70329;45.524;10.194;2023-11-21T06:03:11;99468.06;;;9.90;100.00
49759;BME280;70329;45.524;10.194;2023-11-21T06:05:39;99476.84;;;9.87;100.00
49759;BME280;70329;45.524;10.194;2023-11-21T06:08:07;99484.81;;;9.83;100.00
49759;BME280;70329;45.524;10.194;2023-11-21T06:10:34;99487.53;;;9.83;100.00
49759;BME280;70329;45.524;10.194;2023-11-21T06:12:59;99492.25;;;9.78;100.00
49759;BME280;70329;45.524;10.194;2023-11-21T06:15:26;99481.59;;;9.76;100.00
49759;BME280;70329;45.524;10.194;2023-11-21T06:17:54;99485.94;;;9.77;100.00
49759;BME280;70329;45.524;10.194;2023-11-21T06:20:21;99483.22;;;9.77;100.00
49759;BME280;70329;45.524;10.194;2023-11-21T06:22:48;99480.78;;;9.76;100.00
49759;BME280;70329;45.524;10.194;2023-11-21T06:25:18;99489.25;;;9.74;100.00
49759;BME280;70329;45.524;10.194;2023-11-21T06:27:46;99488.88;;;9.86;100.00
49759;BME280;70329;45.524;10.194;2023-11-21T06:30:14;99486.50;;;9.79;100.00
49759;BME280;70329;45.524;10.194;2023-11-21T06:32:42;99483.25;;;9.72;100.00
49759;BME280;70329;45.524;10.194;2023-11-21T06:35:12;99475.09;;;9.67;100.00
49759;BME280;70329;45.524;10.194;2023-11-21T06:37:39;99474.78;;;9.74;100.00
49759;BME280;70329;45.524;10.194;2023-11-21T06:40:06;99478.28;;;9.79;100.00
49759;BME280;70329;45.524;10.194;2023-11-21T06:42:34;99472.81;;;9.79;100.00
49759;BME280;70329;45.524;10.194;2023-11-21T06:45:01;99473.09;;;9.78;100.00
49759;BME280;70329;45.524;10.194;2023-11-21T06:47:30;99478.56;;;9.78;99.20
49759;BME280;70329;45.524;10.194;2023-11-21T06:49:57;99472.53;;;9.81;98.91
49759;BME280;70329;45.524;10.194;2023-11-21T06:52:24;99469.53;;;9.82;98.26
49759;BME280;70329;45.524;10.194;2023-11-21T06:54:52;99464.81;;;9.88;98.02
49759;BME280;70329;45.524;10.194;2023-11-21T06:57:18;99460.44;;;9.87;98.08
49759;BME280;70329;45.524;10.194;2023-11-21T06:59:45;99458.03;;;9.80;98.35
49759;BME280;70329;45.524;10.194;2023-11-21T07:02:11;99455.84;;;9.82;98.51
49759;BME280;70329;45.524;10.194;2023-11-21T07:04:36;99456.31;;;9.89;98.23
49759;BME280;70329;45.524;10.194;2023-11-21T07:07:04;99463.41;;;9.90;97.65
49759;BME280;70329;45.524;10.194;2023-11-21T07:09:31;99467.56;;;9.83;98.42
49759;BME280;70329;45.524;10.194;2023-11-21T07:11:57;99459.38;;;9.83;99.02
49759;BME280;70329;45.524;10.194;2023-11-21T07:14:22;99454.47;;;9.80;99.60
49759;BME280;70329;45.524;10.194;2023-11-21T07:16:51;99462.09;;;9.83;99.84
49759;BME280;70329;45.524;10.194;2023-11-21T07:19:19;99455.50;;;9.89;99.27
49759;BME280;70329;45.524;10.194;2023-11-21T07:21:46;99459.25;;;9.98;98.18
49759;BME280;70329;45.524;10.194;2023-11-21T07:24:13;99458.03;;;10.09;97.35
49759;BME280;70329;45.524;10.194;2023-11-21T07:26:40;99452.53;;;10.14;96.12
49759;BME280;70329;45.524;10.194;2023-11-21T07:29:07;99450.09;;;10.13;96.57
49759;BME280;70329;45.524;10.194;2023-11-21T07:31:33;99453.53;;;10.23;94.97
49759;BME280;70329;45.524;10.194;2023-11-21T07:34:06;99448.00;;;10.28;94.18
49759;BME280;70329;45.524;10.194;2023-11-21T07:36:32;99458.28;;;10.36;93.68
49759;BME280;70329;45.524;10.194;2023-11-21T07:38:59;99466.50;;;10.36;94.34
49759;BME280;70329;45.524;10.194;2023-11-21T07:41:27;99470.38;;;10.35;94.07
49759;BME280;70329;45.524;10.194;2023-11-21T07:43:56;99471.13;;;10.41;93.97
49759;BME280;70329;45.524;10.194;2023-11-21T07:46:21;99467.50;;;10.45;93.75
49759;BME280;70329;45.524;10.194;2023-11-21T07:48:49;99468.25;;;10.51;93.37
49759;BME280;70329;45.524;10.194;2023-11-21T07:51:17;99469.03;;;10.57;93.51
49759;BME280;70329;45.524;10.194;2023-11-21T07:53:44;99465.75;;;10.55;93.86
49759;BME280;70329;45.524;10.194;2023-11-21T07:56:11;99466.28;;;10.57;94.07
49759;BME280;70329;45.524;10.194;2023-11-21T07:58:37;99475.41;;;10.71;92.37
49759;BME280;70329;45.524;10.194;2023-11-21T08:01:04;99465.22;;;10.76;91.89
49759;BME280;70329;45.524;10.194;2023-11-21T08:03:31;99464.38;;;10.76;91.34
49759;BME280;70329;45.524;10.194;2023-11-21T08:05:58;99456.47;;;10.74;91.76
49759;BME280;70329;45.524;10.194;2023-11-21T08:08:27;99461.13;;;10.74;91.46
49759;BME280;70329;45.524;10.194;2023-11-21T08:10:53;99465.97;;;10.82;90.98
49759;BME280;70329;45.524;10.194;2023-11-21T08:13:23;99467.66;;;10.78;91.06
49759;BME280;70329;45.524;10.194;2023-11-21T08:15:50;99463.81;;;10.79;91.56
49759;BME280;70329;45.524;10.194;2023-11-21T08:18:16;99466.94;;;10.91;90.95
49759;BME280;70329;45.524;10.194;2023-11-21T08:20:44;99459.22;;;10.93;90.24
49759;BME280;70329;45.524;10.194;2023-11-21T08:23:14;99469.88;;;10.94;90.97
49759;BME280;70329;45.524;10.194;2023-11-21T08:25:44;99479.97;;;10.99;91.39
49759;BME280;70329;45.524;10.194;2023-11-21T08:28:11;99481.81;;;11.03;91.44
49759;BME280;70329;45.524;10.194;2023-11-21T08:30:38;99484.50;;;11.08;91.55
49759;BME280;70329;45.524;10.194;2023-11-21T08:33:05;99476.22;;;11.14;90.99
49759;BME280;70329;45.524;10.194;2023-11-21T08:35:31;99482.72;;;11.18;91.34
49759;BME280;70329;45.524;10.194;2023-11-21T08:37:59;99487.34;;;11.22;91.51
49759;BME280;70329;45.524;10.194;2023-11-21T08:40:25;99472.97;;;11.30;89.73
49759;BME280;70329;45.524;10.194;2023-11-21T08:42:54;99468.25;;;11.31;89.94
49759;BME280;70329;45.524;10.194;2023-11-21T08:45:21;99468.50;;;11.34;89.87
49759;BME280;70329;45.524;10.194;2023-11-21T08:47:48;99467.63;;;11.39;88.99
49759;BME280;70329;45.524;10.194;2023-11-21T08:50:15;99460.72;;;11.41;88.33
49759;BME280;70329;45.524;10.194;2023-11-21T08:52:43;99459.00;;;11.45;87.79
49759;BME280;70329;45.524;10.194;2023-11-21T08:55:10;99455.97;;;11.47;87.99
49759;BME280;70329;45.524;10.194;2023-11-21T08:57:39;99452.31;;;11.51;87.34
49759;BME280;70329;45.524;10.194;2023-11-21T09:01:22;99440.16;;;11.57;86.94
49759;BME280;70329;45.524;10.194;2023-11-21T09:03:51;99438.75;;;11.60;87.32
49759;BME280;70329;45.524;10.194;2023-11-21T09:06:18;99443.31;;;11.64;87.23
49759;BME280;70329;45.524;10.194;2023-11-21T09:08:46;99444.81;;;11.76;86.52
49759;BME280;70329;45.524;10.194;2023-11-21T09:11:15;99451.94;;;11.77;86.41
49759;BME280;70329;45.524;10.194;2023-11-21T09:13:42;99448.81;;;11.83;86.29
49759;BME280;70329;45.524;10.194;2023-11-21T09:16:11;99439.97;;;11.86;86.22
49759;BME280;70329;45.524;10.194;2023-11-21T09:18:39;99434.09;;;11.93;86.24
49759;BME280;70329;45.524;10.194;2023-11-21T09:21:07;99428.00;;;11.96;86.76
49759;BME280;70329;45.524;10.194;2023-11-21T09:23:35;99437.25;;;12.00;86.63
49759;BME280;70329;45.524;10.194;2023-11-21T09:26:05;99433.69;;;11.99;86.08
49759;BME280;70329;45.524;10.194;2023-11-21T09:28:33;99443.25;;;12.02;86.57
49759;BME280;70329;45.524;10.194;2023-11-21T09:31:04;99450.16;;;11.99;86.96
49759;BME280;70329;45.524;10.194;2023-11-21T09:33:35;99434.53;;;12.00;87.51
49759;BME280;70329;45.524;10.194;2023-11-21T09:36:11;99440.28;;;11.98;87.46
49759;BME280;70329;45.524;10.194;2023-11-21T09:38:40;99436.72;;;11.98;88.30
49759;BME280;70329;45.524;10.194;2023-11-21T09:41:13;99436.72;;;11.98;89.05
49759;BME280;70329;45.524;10.194;2023-11-21T09:43:46;99430.75;;;11.96;89.63
49759;BME280;70329;45.524;10.194;2023-11-21T09:46:15;99425.75;;;11.98;90.06
49759;BME280;70329;45.524;10.194;2023-11-21T09:48:48;99416.72;;;11.97;90.62
49759;BME280;70329;45.524;10.194;2023-11-21T09:51:22;99412.03;;;11.98;91.32
49759;BME280;70329;45.524;10.194;2023-11-21T09:53:52;99416.50;;;11.94;92.44
49759;BME280;70329;45.524;10.194;2023-11-21T09:56:20;99413.88;;;11.89;93.35
49759;BME280;70329;45.524;10.194;2023-11-21T09:58:52;99416.41;;;11.85;93.90
49759;BME280;70329;45.524;10.194;2023-11-21T10:01:23;99420.56;;;11.83;94.29
49759;BME280;70329;45.524;10.194;2023-11-21T10:03:52;99424.13;;;11.83;94.49
49759;BME280;70329;45.524;10.194;2023-11-21T10:06:23;99415.28;;;11.86;94.29
49759;BME280;70329;45.524;10.194;2023-11-21T10:08:53;99403.50;;;11.86;94.18
49759;BME280;70329;45.524;10.194;2023-11-21T10:11:24;99405.09;;;11.87;93.52
49759;BME280;70329;45.524;10.194;2023-11-21T10:13:54;99398.50;;;11.88;93.31
49759;BME280;70329;45.524;10.194;2023-11-21T10:16:26;99396.38;;;11.85;93.09
49759;BME280;70329;45.524;10.194;2023-11-21T10:18:54;99383.47;;;11.85;92.81
49759;BME280;70329;45.524;10.194;2023-11-21T10:21:24;99379.00;;;11.89;91.19
49759;BME280;70329;45.524;10.194;2023-11-21T10:23:53;99384.47;;;11.89;91.17
49759;BME280;70329;45.524;10.194;2023-11-21T10:26:22;99377.59;;;11.92;89.83
49759;BME280;70329;45.524;10.194;2023-11-21T10:28:56;99375.34;;;11.94;89.11
49759;BME280;70329;45.524;10.194;2023-11-21T10:31:26;99371.28;;;11.91;89.19
49759;BME280;70329;45.524;10.194;2023-11-21T10:33:56;99370.47;;;11.91;89.58
49759;BME280;70329;45.524;10.194;2023-11-21T10:36:29;99362.75;;;11.93;89.68
49759;BME280;70329;45.524;10.194;2023-11-21T10:38:57;99374.53;;;11.93;88.93
49759;BME280;70329;45.524;10.194;2023-11-21T10:41:25;99372.91;;;11.92;89.02
49759;BME280;70329;45.524;10.194;2023-11-21T10:43:53;99369.53;;;11.95;88.99
49759;BME280;70329;45.524;10.194;2023-11-21T10:46:22;99365.69;;;11.96;89.48
49759;BME280;70329;45.524;10.194;2023-11-21T10:48:52;99362.63;;;11.98;89.58
49759;BME280;70329;45.524;10.194;2023-11-21T10:51:23;99362.34;;;11.99;89.37
49759;BME280;70329;45.524;10.194;2023-11-21T10:53:53;99361.63;;;12.07;89.22
49759;BME280;70329;45.524;10.194;2023-11-21T10:56:25;99361.84;;;12.11;88.44
49759;BME280;70329;45.524;10.194;2023-11-21T10:58:52;99369.47;;;12.14;88.73
49759;BME280;70329;45.524;10.194;2023-11-21T11:01:21;99367.22;;;12.16;88.43
49759;BME280;70329;45.524;10.194;2023-11-21T11:03:52;99366.13;;;12.17;88.17
49759;BME280;70329;45.524;10.194;2023-11-21T11:06:22;99360.94;;;12.15;88.59
49759;BME280;70329;45.524;10.194;2023-11-21T11:08:59;99368.56;;;12.18;88.94
49759;BME280;70329;45.524;10.194;2023-11-21T11:11:30;99368.75;;;12.22;88.85
49759;BME280;70329;45.524;10.194;2023-11-21T11:13:58;99373.81;;;12.28;89.34
49759;BME280;70329;45.524;10.194;2023-11-21T11:16:27;99361.34;;;12.36;89.36
49759;BME280;70329;45.524;10.194;2023-11-21T11:18:55;99362.66;;;12.39;89.34
49759;BME280;70329;45.524;10.194;2023-11-21T11:21:30;99371.91;;;12.29;91.36
49759;BME280;70329;45.524;10.194;2023-11-21T11:24:24;99370.06;;;12.24;91.36
49759;BME280;70329;45.524;10.194;2023-11-21T11:27:02;99375.56;;;12.24;92.49
49759;BME280;70329;45.524;10.194;2023-11-21T11:29:41;99376.38;;;12.25;92.53
49759;BME280;70329;45.524;10.194;2023-11-21T11:32:18;99374.53;;;12.20;93.02
49759;BME280;70329;45.524;10.194;2023-11-21T11:34:55;99376.78;;;12.18;93.84
49759;BME280;70329;45.524;10.194;2023-11-21T11:37:27;99372.63;;;12.21;92.48
49759;BME280;70329;45.524;10.194;2023-11-21T11:39:58;99369.16;;;12.15;91.40
49759;BME280;70329;45.524;10.194;2023-11-21T11:42:27;99368.88;;;12.17;91.11
49759;BME280;70329;45.524;10.194;2023-11-21T11:44:55;99370.69;;;12.21;91.19
49759;BME280;70329;45.524;10.194;2023-11-21T11:47:25;99372.31;;;12.22;91.31
49759;BME280;70329;45.524;10.194;2023-11-21T11:50:00;99370.56;;;12.26;91.94
49759;BME280;70329;45.524;10.194;2023-11-21T11:52:35;99371.06;;;12.28;92.50
49759;BME280;70329;45.524;10.194;2023-11-21T11:55:06;99370.56;;;12.26;93.43
49759;BME280;70329;45.524;10.194;2023-11-21T11:57:37;99368.56;;;12.18;95.13
49759;BME280;70329;45.524;10.194;2023-11-21T12:00:16;99364.38;;;12.21;95.52
49759;BME280;70329;45.524;10.194;2023-11-21T12:02:47;99371.41;;;12.13;94.43
49759;BME280;70329;45.524;10.194;2023-11-21T12:05:19;99368.94;;;12.12;96.51
49759;BME280;70329;45.524;10.194;2023-11-21T12:07:49;99373.00;;;12.14;96.95
49759;BME280;70329;45.524;10.194;2023-11-21T12:10:22;99367.13;;;12.07;97.87
49759;BME280;70329;45.524;10.194;2023-11-21T12:12:52;99366.53;;;11.97;99.54
49759;BME280;70329;45.524;10.194;2023-11-21T12:15:21;99365.19;;;11.94;99.04
49759;BME280;70329;45.524;10.194;2023-11-21T12:17:49;99361.53;;;11.99;98.89
49759;BME280;70329;45.524;10.194;2023-11-21T12:20:20;99366.91;;;12.04;98.87
49759;BME280;70329;45.524;10.194;2023-11-21T12:22:48;99365.81;;;12.05;99.02
49759;BME280;70329;45.524;10.194;2023-11-21T12:25:17;99378.94;;;12.08;99.27
49759;BME280;70329;45.524;10.194;2023-11-21T12:27:51;99372.22;;;12.14;98.70
49759;BME280;70329;45.524;10.194;2023-11-21T12:30:20;99387.88;;;12.13;98.04
49759;BME280;70329;45.524;10.194;2023-11-21T12:32:49;99382.06;;;12.15;98.08
49759;BME280;70329;45.524;10.194;2023-11-21T12:35:18;99372.72;;;12.16;98.38
49759;BME280;70329;45.524;10.194;2023-11-21T12:37:48;99372.13;;;12.19;98.41
49759;BME280;70329;45.524;10.194;2023-11-21T12:40:16;99374.53;;;12.20;98.22
49759;BME280;70329;45.524;10.194;2023-11-21T12:42:45;99371.09;;;12.15;97.69
49759;BME280;70329;45.524;10.194;2023-11-21T12:45:23;99361.63;;;12.21;96.36
49759;BME280;70329;45.524;10.194;2023-11-21T12:47:55;99359.72;;;12.21;96.01
49759;BME280;70329;45.524;10.194;2023-11-21T12:50:27;99345.97;;;12.21;96.69
49759;BME280;70329;45.524;10.194;2023-11-21T12:53:00;99335.81;;;12.22;96.65